Schererville, Indiana
Current Conditions -  °F | °C
As of 9:15 AM on Wednesday 26 Nov 2014 (Local Time) from KIGQ Reporting Station
Overcast Overcast  
Wind Chill: 16°   Ceiling: 1400
Heat Index: 25°   Visibility: 10mi
Dew Point: 20°   Wind: 8mph
Humidity: 82%   Direction: 90°E
Pressure: 30.16"   Gusts: NA
Location:  41.49°N, 87.48°W
Report Text: KIGQ 261515Z AUTO 09007KT 10SM OVC014 M04/M07 A3016 RMK AO2 T10411068
Loading
Personal Weather Stations






























Interactive Weather Map New forecast layout! Learn more

10-Day Weather Forecast

Advertisements
Track Severe Weather on mobile